sensor_id;sensor_type;location;lat;lon;timestamp;P1;durP1;ratioP1;P2;durP2;ratioP2
21192;SDS011;10754;51.106;7.164;2023-03-16T00:00:43;2.87;;;2.07;;
21192;SDS011;10754;51.106;7.164;2023-03-16T00:03:09;2.57;;;2.03;;
21192;SDS011;10754;51.106;7.164;2023-03-16T00:05:35;3.73;;;2.57;;
21192;SDS011;10754;51.106;7.164;2023-03-16T00:08:01;3.40;;;2.10;;
21192;SDS011;10754;51.106;7.164;2023-03-16T00:10:26;3.50;;;1.80;;
21192;SDS011;10754;51.106;7.164;2023-03-16T00:12:52;3.07;;;2.53;;
21192;SDS011;10754;51.106;7.164;2023-03-16T00:15:18;3.43;;;2.63;;
21192;SDS011;10754;51.106;7.164;2023-03-16T00:17:44;4.97;;;2.93;;
21192;SDS011;10754;51.106;7.164;2023-03-16T00:20:12;3.03;;;2.00;;
21192;SDS011;10754;51.106;7.164;2023-03-16T00:22:38;2.73;;;2.03;;
21192;SDS011;10754;51.106;7.164;2023-03-16T00:25:04;3.63;;;2.60;;
21192;SDS011;10754;51.106;7.164;2023-03-16T00:27:30;2.80;;;1.93;;
21192;SDS011;10754;51.106;7.164;2023-03-16T00:29:55;2.60;;;2.10;;
21192;SDS011;10754;51.106;7.164;2023-03-16T00:32:25;3.23;;;2.10;;
21192;SDS011;10754;51.106;7.164;2023-03-16T00:34:52;3.67;;;2.90;;
21192;SDS011;10754;51.106;7.164;2023-03-16T00:37:18;2.67;;;2.10;;
21192;SDS011;10754;51.106;7.164;2023-03-16T00:39:47;4.57;;;2.00;;
21192;SDS011;10754;51.106;7.164;2023-03-16T00:42:13;2.63;;;2.00;;
21192;SDS011;10754;51.106;7.164;2023-03-16T00:44:40;3.40;;;2.63;;
21192;SDS011;10754;51.106;7.164;2023-03-16T00:47:06;3.47;;;2.33;;
21192;SDS011;10754;51.106;7.164;2023-03-16T00:49:32;2.43;;;2.23;;
21192;SDS011;10754;51.106;7.164;2023-03-16T00:52:02;5.57;;;2.33;;
21192;SDS011;10754;51.106;7.164;2023-03-16T00:54:29;5.17;;;2.53;;
21192;SDS011;10754;51.106;7.164;2023-03-16T00:56:59;4.07;;;2.50;;
21192;SDS011;10754;51.106;7.164;2023-03-16T00:59:26;3.90;;;2.00;;
21192;SDS011;10754;51.106;7.164;2023-03-16T01:01:52;2.20;;;2.00;;
21192;SDS011;10754;51.106;7.164;2023-03-16T01:04:19;3.17;;;2.20;;
21192;SDS011;10754;51.106;7.164;2023-03-16T01:06:45;3.80;;;2.10;;
21192;SDS011;10754;51.106;7.164;2023-03-16T01:09:11;3.20;;;1.73;;
21192;SDS011;10754;51.106;7.164;2023-03-16T01:11:39;2.47;;;2.17;;
21192;SDS011;10754;51.106;7.164;2023-03-16T01:14:07;5.27;;;2.47;;
21192;SDS011;10754;51.106;7.164;2023-03-16T01:16:33;2.57;;;2.00;;
21192;SDS011;10754;51.106;7.164;2023-03-16T01:18:58;3.33;;;2.60;;
21192;SDS011;10754;51.106;7.164;2023-03-16T01:21:25;2.97;;;2.20;;
21192;SDS011;10754;51.106;7.164;2023-03-16T01:23:51;2.77;;;2.20;;
21192;SDS011;10754;51.106;7.164;2023-03-16T01:26:17;6.27;;;2.40;;
21192;SDS011;10754;51.106;7.164;2023-03-16T01:28:44;3.50;;;2.20;;
21192;SDS011;10754;51.106;7.164;2023-03-16T01:31:11;3.20;;;2.60;;
21192;SDS011;10754;51.106;7.164;2023-03-16T01:33:38;3.70;;;2.40;;
21192;SDS011;10754;51.106;7.164;2023-03-16T01:36:10;2.80;;;2.03;;
21192;SDS011;10754;51.106;7.164;2023-03-16T01:38:37;5.20;;;2.10;;
21192;SDS011;10754;51.106;7.164;2023-03-16T01:41:04;3.43;;;2.10;;
21192;SDS011;10754;51.106;7.164;2023-03-16T01:43:31;3.83;;;2.53;;
21192;SDS011;10754;51.106;7.164;2023-03-16T01:53:56;2.27;;;1.70;;
21192;SDS011;10754;51.106;7.164;2023-03-16T01:56:26;3.87;;;2.30;;
21192;SDS011;10754;51.106;7.164;2023-03-16T01:58:58;3.30;;;2.00;;
21192;SDS011;10754;51.106;7.164;2023-03-16T02:01:29;2.97;;;2.20;;
21192;SDS011;10754;51.106;7.164;2023-03-16T02:03:56;2.90;;;1.80;;
21192;SDS011;10754;51.106;7.164;2023-03-16T02:06:31;1.90;;;1.60;;
21192;SDS011;10754;51.106;7.164;2023-03-16T02:08:58;3.23;;;2.00;;
21192;SDS011;10754;51.106;7.164;2023-03-16T02:11:24;3.10;;;1.73;;
21192;SDS011;10754;51.106;7.164;2023-03-16T02:13:50;3.83;;;2.20;;
21192;SDS011;10754;51.106;7.164;2023-03-16T02:16:16;3.17;;;2.27;;
21192;SDS011;10754;51.106;7.164;2023-03-16T02:18:46;6.23;;;2.37;;
21192;SDS011;10754;51.106;7.164;2023-03-16T02:23:41;2.80;;;1.70;;
21192;SDS011;10754;51.106;7.164;2023-03-16T02:28:52;2.77;;;1.90;;
21192;SDS011;10754;51.106;7.164;2023-03-16T02:31:42;2.90;;;2.10;;
21192;SDS011;10754;51.106;7.164;2023-03-16T02:34:08;2.00;;;1.57;;
21192;SDS011;10754;51.106;7.164;2023-03-16T02:36:35;3.03;;;1.70;;
21192;SDS011;10754;51.106;7.164;2023-03-16T02:39:03;2.70;;;1.70;;
21192;SDS011;10754;51.106;7.164;2023-03-16T02:41:29;1.80;;;1.70;;
21192;SDS011;10754;51.106;7.164;2023-03-16T02:43:58;2.40;;;1.80;;
21192;SDS011;10754;51.106;7.164;2023-03-16T02:46:29;1.90;;;1.63;;
21192;SDS011;10754;51.106;7.164;2023-03-16T02:51:36;2.00;;;1.80;;
21192;SDS011;10754;51.106;7.164;2023-03-16T02:54:02;2.13;;;1.80;;
21192;SDS011;10754;51.106;7.164;2023-03-16T02:56:27;3.00;;;1.80;;
21192;SDS011;10754;51.106;7.164;2023-03-16T02:58:53;3.40;;;1.73;;
21192;SDS011;10754;51.106;7.164;2023-03-16T03:01:21;2.17;;;1.80;;
21192;SDS011;10754;51.106;7.164;2023-03-16T03:03:47;2.13;;;1.50;;
21192;SDS011;10754;51.106;7.164;2023-03-16T03:06:12;2.43;;;1.70;;
21192;SDS011;10754;51.106;7.164;2023-03-16T03:08:38;3.27;;;1.70;;
21192;SDS011;10754;51.106;7.164;2023-03-16T03:11:03;2.63;;;1.80;;
21192;SDS011;10754;51.106;7.164;2023-03-16T03:13:29;2.13;;;1.67;;
21192;SDS011;10754;51.106;7.164;2023-03-16T03:15:55;3.00;;;1.73;;
21192;SDS011;10754;51.106;7.164;2023-03-16T03:18:21;2.53;;;1.87;;
21192;SDS011;10754;51.106;7.164;2023-03-16T03:20:49;2.10;;;1.77;;
21192;SDS011;10754;51.106;7.164;2023-03-16T03:23:14;2.00;;;1.80;;
21192;SDS011;10754;51.106;7.164;2023-03-16T03:25:40;2.90;;;1.77;;
21192;SDS011;10754;51.106;7.164;2023-03-16T03:28:06;1.70;;;1.60;;
21192;SDS011;10754;51.106;7.164;2023-03-16T03:30:33;3.13;;;2.17;;
21192;SDS011;10754;51.106;7.164;2023-03-16T03:32:59;1.97;;;1.70;;
21192;SDS011;10754;51.106;7.164;2023-03-16T03:35:25;2.40;;;1.90;;
21192;SDS011;10754;51.106;7.164;2023-03-16T03:37:51;2.70;;;1.83;;
21192;SDS011;10754;51.106;7.164;2023-03-16T03:40:17;2.60;;;2.00;;
21192;SDS011;10754;51.106;7.164;2023-03-16T03:42:43;4.00;;;2.30;;
21192;SDS011;10754;51.106;7.164;2023-03-16T03:45:09;4.17;;;2.20;;
21192;SDS011;10754;51.106;7.164;2023-03-16T03:47:36;1.97;;;1.70;;
21192;SDS011;10754;51.106;7.164;2023-03-16T03:50:02;2.60;;;1.83;;
21192;SDS011;10754;51.106;7.164;2023-03-16T03:52:28;3.77;;;2.17;;
21192;SDS011;10754;51.106;7.164;2023-03-16T03:54:53;3.70;;;1.80;;
21192;SDS011;10754;51.106;7.164;2023-03-16T03:57:19;2.20;;;2.00;;
21192;SDS011;10754;51.106;7.164;2023-03-16T03:59:44;2.33;;;1.83;;
21192;SDS011;10754;51.106;7.164;2023-03-16T04:02:10;2.73;;;2.10;;
21192;SDS011;10754;51.106;7.164;2023-03-16T04:04:37;2.10;;;1.70;;
21192;SDS011;10754;51.106;7.164;2023-03-16T04:07:04;3.70;;;2.33;;
21192;SDS011;10754;51.106;7.164;2023-03-16T04:09:29;3.30;;;2.10;;
21192;SDS011;10754;51.106;7.164;2023-03-16T04:11:58;2.90;;;1.80;;
21192;SDS011;10754;51.106;7.164;2023-03-16T04:14:28;2.93;;;1.90;;
21192;SDS011;10754;51.106;7.164;2023-03-16T04:16:53;4.77;;;2.47;;
21192;SDS011;10754;51.106;7.164;2023-03-16T04:19:20;2.53;;;2.00;;
21192;SDS011;10754;51.106;7.164;2023-03-16T04:21:47;3.70;;;2.50;;
21192;SDS011;10754;51.106;7.164;2023-03-16T04:24:13;3.00;;;2.50;;
21192;SDS011;10754;51.106;7.164;2023-03-16T04:26:39;3.00;;;2.10;;
21192;SDS011;10754;51.106;7.164;2023-03-16T04:29:05;3.07;;;2.50;;
21192;SDS011;10754;51.106;7.164;2023-03-16T04:31:30;3.10;;;2.37;;
21192;SDS011;10754;51.106;7.164;2023-03-16T04:33:56;2.70;;;2.13;;
21192;SDS011;10754;51.106;7.164;2023-03-16T04:36:21;3.60;;;2.00;;
21192;SDS011;10754;51.106;7.164;2023-03-16T04:38:50;2.77;;;2.40;;
21192;SDS011;10754;51.106;7.164;2023-03-16T04:41:15;3.80;;;2.43;;
21192;SDS011;10754;51.106;7.164;2023-03-16T04:43:41;3.60;;;2.40;;
21192;SDS011;10754;51.106;7.164;2023-03-16T04:46:07;2.67;;;2.43;;
21192;SDS011;10754;51.106;7.164;2023-03-16T04:48:34;2.87;;;2.57;;
21192;SDS011;10754;51.106;7.164;2023-03-16T04:51:00;3.43;;;2.77;;
21192;SDS011;10754;51.106;7.164;2023-03-16T04:53:27;3.47;;;2.73;;
21192;SDS011;10754;51.106;7.164;2023-03-16T04:55:53;4.30;;;3.37;;
21192;SDS011;10754;51.106;7.164;2023-03-16T04:58:19;3.00;;;2.70;;
21192;SDS011;10754;51.106;7.164;2023-03-16T05:00:44;4.60;;;3.00;;
21192;SDS011;10754;51.106;7.164;2023-03-16T05:03:10;3.17;;;2.83;;
21192;SDS011;10754;51.106;7.164;2023-03-16T05:05:36;3.63;;;3.07;;
21192;SDS011;10754;51.106;7.164;2023-03-16T05:08:02;3.33;;;3.03;;
21192;SDS011;10754;51.106;7.164;2023-03-16T05:10:30;3.13;;;2.80;;
21192;SDS011;10754;51.106;7.164;2023-03-16T05:12:57;4.03;;;3.00;;
21192;SDS011;10754;51.106;7.164;2023-03-16T05:15:22;3.20;;;2.57;;
21192;SDS011;10754;51.106;7.164;2023-03-16T05:17:48;3.33;;;2.37;;
21192;SDS011;10754;51.106;7.164;2023-03-16T05:20:14;2.80;;;2.43;;
21192;SDS011;10754;51.106;7.164;2023-03-16T05:22:40;4.03;;;2.63;;
21192;SDS011;10754;51.106;7.164;2023-03-16T05:25:07;2.73;;;2.53;;
21192;SDS011;10754;51.106;7.164;2023-03-16T05:27:33;4.40;;;2.80;;
21192;SDS011;10754;51.106;7.164;2023-03-16T05:29:59;3.43;;;2.37;;
21192;SDS011;10754;51.106;7.164;2023-03-16T05:32:25;2.87;;;2.50;;
21192;SDS011;10754;51.106;7.164;2023-03-16T05:34:51;3.00;;;2.70;;
21192;SDS011;10754;51.106;7.164;2023-03-16T05:37:17;2.90;;;2.60;;
21192;SDS011;10754;51.106;7.164;2023-03-16T05:39:43;2.87;;;2.57;;
21192;SDS011;10754;51.106;7.164;2023-03-16T05:42:08;3.17;;;2.60;;
21192;SDS011;10754;51.106;7.164;2023-03-16T05:44:34;3.97;;;2.80;;
21192;SDS011;10754;51.106;7.164;2023-03-16T05:47:00;4.97;;;2.77;;
21192;SDS011;10754;51.106;7.164;2023-03-16T05:49:26;3.17;;;2.87;;
21192;SDS011;10754;51.106;7.164;2023-03-16T05:51:51;4.00;;;2.83;;
21192;SDS011;10754;51.106;7.164;2023-03-16T05:54:18;3.70;;;2.70;;
21192;SDS011;10754;51.106;7.164;2023-03-16T05:56:43;3.37;;;3.00;;
21192;SDS011;10754;51.106;7.164;2023-03-16T05:59:09;3.10;;;2.80;;
21192;SDS011;10754;51.106;7.164;2023-03-16T06:01:35;4.10;;;2.40;;
21192;SDS011;10754;51.106;7.164;2023-03-16T06:04:01;2.57;;;2.37;;
21192;SDS011;10754;51.106;7.164;2023-03-16T06:06:29;2.83;;;2.57;;
21192;SDS011;10754;51.106;7.164;2023-03-16T06:08:54;3.80;;;2.90;;
21192;SDS011;10754;51.106;7.164;2023-03-16T06:11:20;2.60;;;2.40;;
21192;SDS011;10754;51.106;7.164;2023-03-16T06:13:46;3.13;;;2.67;;
21192;SDS011;10754;51.106;7.164;2023-03-16T06:16:11;3.37;;;2.90;;
21192;SDS011;10754;51.106;7.164;2023-03-16T06:18:38;4.17;;;2.80;;
21192;SDS011;10754;51.106;7.164;2023-03-16T06:21:04;4.27;;;3.03;;
21192;SDS011;10754;51.106;7.164;2023-03-16T06:23:29;4.07;;;2.73;;
21192;SDS011;10754;51.106;7.164;2023-03-16T06:25:55;2.90;;;2.60;;
21192;SDS011;10754;51.106;7.164;2023-03-16T06:28:21;3.30;;;2.67;;
21192;SDS011;10754;51.106;7.164;2023-03-16T06:30:47;2.67;;;2.47;;
21192;SDS011;10754;51.106;7.164;2023-03-16T06:33:12;3.93;;;3.20;;
21192;SDS011;10754;51.106;7.164;2023-03-16T06:35:38;3.07;;;2.50;;
21192;SDS011;10754;51.106;7.164;2023-03-16T06:38:03;2.83;;;2.57;;
21192;SDS011;10754;51.106;7.164;2023-03-16T06:40:29;3.03;;;2.73;;
21192;SDS011;10754;51.106;7.164;2023-03-16T06:42:55;3.53;;;2.53;;
21192;SDS011;10754;51.106;7.164;2023-03-16T06:45:20;3.17;;;2.70;;
21192;SDS011;10754;51.106;7.164;2023-03-16T06:47:46;3.60;;;2.60;;
21192;SDS011;10754;51.106;7.164;2023-03-16T06:50:12;5.40;;;2.90;;
21192;SDS011;10754;51.106;7.164;2023-03-16T06:52:39;3.40;;;2.67;;
21192;SDS011;10754;51.106;7.164;2023-03-16T06:55:05;2.97;;;2.67;;
21192;SDS011;10754;51.106;7.164;2023-03-16T06:57:31;3.20;;;2.70;;
21192;SDS011;10754;51.106;7.164;2023-03-16T06:59:57;4.33;;;3.10;;
21192;SDS011;10754;51.106;7.164;2023-03-16T07:02:22;3.37;;;3.07;;
21192;SDS011;10754;51.106;7.164;2023-03-16T07:04:48;3.77;;;2.83;;
21192;SDS011;10754;51.106;7.164;2023-03-16T07:07:14;5.83;;;2.67;;
21192;SDS011;10754;51.106;7.164;2023-03-16T07:09:41;3.23;;;2.67;;
21192;SDS011;10754;51.106;7.164;2023-03-16T07:12:07;4.20;;;3.23;;
21192;SDS011;10754;51.106;7.164;2023-03-16T07:14:32;4.40;;;2.87;;
21192;SDS011;10754;51.106;7.164;2023-03-16T07:16:58;3.33;;;3.00;;
21192;SDS011;10754;51.106;7.164;2023-03-16T07:19:23;3.80;;;3.50;;
21192;SDS011;10754;51.106;7.164;2023-03-16T07:21:49;3.17;;;2.73;;
21192;SDS011;10754;51.106;7.164;2023-03-16T07:24:15;3.93;;;2.90;;
21192;SDS011;10754;51.106;7.164;2023-03-16T07:26:41;2.97;;;2.67;;
21192;SDS011;10754;51.106;7.164;2023-03-16T07:29:07;3.23;;;2.87;;
21192;SDS011;10754;51.106;7.164;2023-03-16T07:31:34;3.50;;;3.20;;
21192;SDS011;10754;51.106;7.164;2023-03-16T07:34:00;4.23;;;3.60;;
21192;SDS011;10754;51.106;7.164;2023-03-16T07:36:26;3.43;;;3.10;;
21192;SDS011;10754;51.106;7.164;2023-03-16T07:38:52;4.10;;;3.23;;
21192;SDS011;10754;51.106;7.164;2023-03-16T07:41:17;5.47;;;3.47;;
21192;SDS011;10754;51.106;7.164;2023-03-16T07:43:43;3.93;;;3.53;;
21192;SDS011;10754;51.106;7.164;2023-03-16T07:46:12;3.50;;;3.20;;
21192;SDS011;10754;51.106;7.164;2023-03-16T07:48:41;3.53;;;3.17;;
21192;SDS011;10754;51.106;7.164;2023-03-16T07:51:08;3.93;;;3.47;;
21192;SDS011;10754;51.106;7.164;2023-03-16T07:53:34;3.60;;;3.30;;
21192;SDS011;10754;51.106;7.164;2023-03-16T07:56:00;3.70;;;3.40;;
21192;SDS011;10754;51.106;7.164;2023-03-16T07:58:26;5.43;;;3.20;;
21192;SDS011;10754;51.106;7.164;2023-03-16T08:00:55;3.77;;;3.20;;
21192;SDS011;10754;51.106;7.164;2023-03-16T08:03:21;3.60;;;3.30;;
21192;SDS011;10754;51.106;7.164;2023-03-16T08:05:46;3.43;;;3.13;;
21192;SDS011;10754;51.106;7.164;2023-03-16T08:08:12;3.73;;;3.00;;
21192;SDS011;10754;51.106;7.164;2023-03-16T08:10:39;3.60;;;3.30;;
21192;SDS011;10754;51.106;7.164;2023-03-16T08:13:05;3.43;;;3.00;;
21192;SDS011;10754;51.106;7.164;2023-03-16T08:15:31;4.10;;;3.30;;
21192;SDS011;10754;51.106;7.164;2023-03-16T08:17:59;3.07;;;2.77;;
21192;SDS011;10754;51.106;7.164;2023-03-16T08:20:26;3.10;;;2.80;;
21192;SDS011;10754;51.106;7.164;2023-03-16T08:22:53;3.47;;;2.83;;
21192;SDS011;10754;51.106;7.164;2023-03-16T08:25:19;3.73;;;3.30;;
21192;SDS011;10754;51.106;7.164;2023-03-16T08:27:45;4.20;;;3.07;;
21192;SDS011;10754;51.106;7.164;2023-03-16T08:30:13;3.53;;;3.23;;
21192;SDS011;10754;51.106;7.164;2023-03-16T08:32:39;3.43;;;3.13;;
21192;SDS011;10754;51.106;7.164;2023-03-16T08:35:06;3.20;;;2.90;;
21192;SDS011;10754;51.106;7.164;2023-03-16T08:37:37;4.07;;;3.13;;
21192;SDS011;10754;51.106;7.164;2023-03-16T08:40:03;3.73;;;3.13;;
21192;SDS011;10754;51.106;7.164;2023-03-16T08:42:34;4.63;;;3.87;;
21192;SDS011;10754;51.106;7.164;2023-03-16T08:45:00;3.50;;;3.20;;
21192;SDS011;10754;51.106;7.164;2023-03-16T08:47:33;3.83;;;3.53;;
21192;SDS011;10754;51.106;7.164;2023-03-16T08:49:59;3.80;;;3.20;;
21192;SDS011;10754;51.106;7.164;2023-03-16T08:52:25;3.70;;;3.30;;
21192;SDS011;10754;51.106;7.164;2023-03-16T08:54:51;4.13;;;3.40;;
21192;SDS011;10754;51.106;7.164;2023-03-16T08:57:17;4.30;;;3.90;;
21192;SDS011;10754;51.106;7.164;2023-03-16T08:59:42;4.23;;;3.53;;
21192;SDS011;10754;51.106;7.164;2023-03-16T09:02:10;3.77;;;3.40;;
21192;SDS011;10754;51.106;7.164;2023-03-16T09:04:38;4.10;;;3.60;;
21192;SDS011;10754;51.106;7.164;2023-03-16T09:07:04;5.13;;;4.63;;
21192;SDS011;10754;51.106;7.164;2023-03-16T09:09:29;4.03;;;3.73;;
21192;SDS011;10754;51.106;7.164;2023-03-16T09:11:56;4.10;;;3.70;;
21192;SDS011;10754;51.106;7.164;2023-03-16T09:14:22;3.97;;;3.33;;
21192;SDS011;10754;51.106;7.164;2023-03-16T09:16:49;4.50;;;3.87;;
21192;SDS011;10754;51.106;7.164;2023-03-16T09:19:14;4.13;;;3.73;;
21192;SDS011;10754;51.106;7.164;2023-03-16T09:21:40;4.13;;;3.60;;
21192;SDS011;10754;51.106;7.164;2023-03-16T09:24:06;5.73;;;3.90;;
21192;SDS011;10754;51.106;7.164;2023-03-16T09:26:33;4.10;;;3.70;;
21192;SDS011;10754;51.106;7.164;2023-03-16T09:28:59;4.47;;;4.07;;
21192;SDS011;10754;51.106;7.164;2023-03-16T09:31:24;4.17;;;3.70;;
21192;SDS011;10754;51.106;7.164;2023-03-16T09:33:50;4.70;;;3.73;;
21192;SDS011;10754;51.106;7.164;2023-03-16T09:36:16;4.10;;;3.70;;
21192;SDS011;10754;51.106;7.164;2023-03-16T09:38:42;4.50;;;4.10;;
21192;SDS011;10754;51.106;7.164;2023-03-16T09:41:09;4.27;;;3.87;;
21192;SDS011;10754;51.106;7.164;2023-03-16T09:44:01;4.40;;;3.87;;
21192;SDS011;10754;51.106;7.164;2023-03-16T09:46:53;4.30;;;3.90;;
21192;SDS011;10754;51.106;7.164;2023-03-16T09:49:23;4.43;;;4.03;;
21192;SDS011;10754;51.106;7.164;2023-03-16T09:52:03;4.27;;;3.87;;
21192;SDS011;10754;51.106;7.164;2023-03-16T09:54:38;4.43;;;3.83;;
21192;SDS011;10754;51.106;7.164;2023-03-16T09:57:38;3.83;;;3.50;;
21192;SDS011;10754;51.106;7.164;2023-03-16T10:00:16;6.10;;;3.73;;
21192;SDS011;10754;51.106;7.164;2023-03-16T10:05:23;4.77;;;3.80;;
21192;SDS011;10754;51.106;7.164;2023-03-16T10:13:26;4.20;;;3.30;;
21192;SDS011;10754;51.106;7.164;2023-03-16T10:15:58;4.40;;;4.00;;
21192;SDS011;10754;51.106;7.164;2023-03-16T10:18:30;3.73;;;3.23;;
21192;SDS011;10754;51.106;7.164;2023-03-16T10:21:01;4.63;;;3.70;;
21192;SDS011;10754;51.106;7.164;2023-03-16T10:23:27;4.20;;;3.70;;
21192;SDS011;10754;51.106;7.164;2023-03-16T10:25:59;3.90;;;3.50;;
21192;SDS011;10754;51.106;7.164;2023-03-16T10:28:25;4.10;;;3.70;;
21192;SDS011;10754;51.106;7.164;2023-03-16T10:30:56;4.63;;;3.50;;
21192;SDS011;10754;51.106;7.164;2023-03-16T10:33:24;4.00;;;3.60;;
21192;SDS011;10754;51.106;7.164;2023-03-16T10:35:54;4.47;;;3.47;;
21192;SDS011;10754;51.106;7.164;2023-03-16T10:38:27;5.03;;;3.60;;
21192;SDS011;10754;51.106;7.164;2023-03-16T10:40:57;4.73;;;3.73;;
21192;SDS011;10754;51.106;7.164;2023-03-16T10:43:24;3.60;;;3.20;;
21192;SDS011;10754;51.106;7.164;2023-03-16T10:45:50;3.43;;;3.13;;
21192;SDS011;10754;51.106;7.164;2023-03-16T10:48:16;3.97;;;3.37;;
21192;SDS011;10754;51.106;7.164;2023-03-16T10:50:51;3.00;;;2.70;;
21192;SDS011;10754;51.106;7.164;2023-03-16T10:53:20;3.70;;;3.10;;
21192;SDS011;10754;51.106;7.164;2023-03-16T10:55:55;3.20;;;2.90;;
21192;SDS011;10754;51.106;7.164;2023-03-16T10:58:28;4.43;;;2.93;;
21192;SDS011;10754;51.106;7.164;2023-03-16T11:00:56;2.70;;;2.50;;
21192;SDS011;10754;51.106;7.164;2023-03-16T11:03:28;3.53;;;3.23;;
21192;SDS011;10754;51.106;7.164;2023-03-16T11:06:45;4.23;;;3.40;;
21192;SDS011;10754;51.106;7.164;2023-03-16T11:08:48;3.73;;;2.90;;
21192;SDS011;10754;51.106;7.164;2023-03-16T11:11:17;3.53;;;2.53;;
21192;SDS011;10754;51.106;7.164;2023-03-16T11:13:53;3.67;;;2.83;;
21192;SDS011;10754;51.106;7.164;2023-03-16T11:19:11;3.63;;;2.77;;
21192;SDS011;10754;51.106;7.164;2023-03-16T11:22:09;3.30;;;2.60;;
21192;SDS011;10754;51.106;7.164;2023-03-16T11:27:24;3.03;;;2.73;;
21192;SDS011;10754;51.106;7.164;2023-03-16T11:32:26;2.83;;;2.27;;
21192;SDS011;10754;51.106;7.164;2023-03-16T11:34:57;3.27;;;2.43;;
21192;SDS011;10754;51.106;7.164;2023-03-16T11:52:38;2.47;;;1.90;;
21192;SDS011;10754;51.106;7.164;2023-03-16T11:55:19;2.30;;;1.80;;
21192;SDS011;10754;51.106;7.164;2023-03-16T12:09:03;2.13;;;1.85;;
21192;SDS011;10754;51.106;7.164;2023-03-16T12:11:34;3.47;;;2.15;;
21192;SDS011;10754;51.106;7.164;2023-03-16T12:22:36;5.03;;;2.10;;
21192;SDS011;10754;51.106;7.164;2023-03-16T12:25:19;2.38;;;1.67;;
21192;SDS011;10754;51.106;7.164;2023-03-16T12:27:49;2.90;;;1.70;;
21192;SDS011;10754;51.106;7.164;2023-03-16T12:30:22;1.98;;;1.60;;
21192;SDS011;10754;51.106;7.164;2023-03-16T12:41:26;2.55;;;1.33;;
21192;SDS011;10754;51.106;7.164;2023-03-16T12:44:13;2.15;;;1.50;;
21192;SDS011;10754;51.106;7.164;2023-03-16T12:46:59;1.70;;;1.25;;
21192;SDS011;10754;51.106;7.164;2023-03-16T12:49:34;2.30;;;1.30;;
21192;SDS011;10754;51.106;7.164;2023-03-16T12:52:04;2.78;;;1.77;;
21192;SDS011;10754;51.106;7.164;2023-03-16T12:54:34;3.55;;;1.63;;
21192;SDS011;10754;51.106;7.164;2023-03-16T12:57:07;1.52;;;1.27;;
21192;SDS011;10754;51.106;7.164;2023-03-16T12:59:39;2.15;;;1.40;;
21192;SDS011;10754;51.106;7.164;2023-03-16T13:02:20;2.10;;;1.20;;
21192;SDS011;10754;51.106;7.164;2023-03-16T13:04:57;2.58;;;1.35;;
21192;SDS011;10754;51.106;7.164;2023-03-16T13:07:32;1.75;;;1.20;;
21192;SDS011;10754;51.106;7.164;2023-03-16T13:10:04;2.60;;;1.20;;
21192;SDS011;10754;51.106;7.164;2023-03-16T13:12:35;1.80;;;1.13;;
21192;SDS011;10754;51.106;7.164;2023-03-16T13:17:44;2.10;;;1.55;;
21192;SDS011;10754;51.106;7.164;2023-03-16T13:22:50;2.08;;;1.58;;
21192;SDS011;10754;51.106;7.164;2023-03-16T13:25:42;1.30;;;1.20;;
21192;SDS011;10754;51.106;7.164;2023-03-16T13:28:12;1.77;;;1.20;;
21192;SDS011;10754;51.106;7.164;2023-03-16T13:30:47;2.10;;;1.17;;
21192;SDS011;10754;51.106;7.164;2023-03-16T13:33:18;2.53;;;1.20;;
21192;SDS011;10754;51.106;7.164;2023-03-16T13:35:46;2.67;;;1.20;;
21192;SDS011;10754;51.106;7.164;2023-03-16T13:38:15;2.50;;;0.90;;
21192;SDS011;10754;51.106;7.164;2023-03-16T13:40:45;1.33;;;1.00;;
21192;SDS011;10754;51.106;7.164;2023-03-16T13:43:16;1.35;;;1.00;;
21192;SDS011;10754;51.106;7.164;2023-03-16T13:45:52;2.53;;;1.15;;
21192;SDS011;10754;51.106;7.164;2023-03-16T13:48:18;0.95;;;0.85;;
21192;SDS011;10754;51.106;7.164;2023-03-16T13:50:45;1.48;;;1.00;;
21192;SDS011;10754;51.106;7.164;2023-03-16T13:53:23;2.03;;;0.95;;
21192;SDS011;10754;51.106;7.164;2023-03-16T13:55:52;2.10;;;1.02;;
21192;SDS011;10754;51.106;7.164;2023-03-16T13:58:30;1.70;;;0.98;;
21192;SDS011;10754;51.106;7.164;2023-03-16T14:00:59;1.83;;;0.90;;
21192;SDS011;10754;51.106;7.164;2023-03-16T14:03:29;0.90;;;0.70;;
21192;SDS011;10754;51.106;7.164;2023-03-16T14:06:03;3.17;;;1.08;;
21192;SDS011;10754;51.106;7.164;2023-03-16T14:08:30;1.80;;;1.00;;
21192;SDS011;10754;51.106;7.164;2023-03-16T14:10:57;1.13;;;0.90;;
21192;SDS011;10754;51.106;7.164;2023-03-16T14:18:35;2.97;;;0.85;;
21192;SDS011;10754;51.106;7.164;2023-03-16T14:21:07;1.35;;;0.80;;
21192;SDS011;10754;51.106;7.164;2023-03-16T14:23:43;1.73;;;0.77;;
21192;SDS011;10754;51.106;7.164;2023-03-16T14:26:10;1.58;;;0.68;;
21192;SDS011;10754;51.106;7.164;2023-03-16T14:28:38;2.13;;;1.10;;
21192;SDS011;10754;51.106;7.164;2023-03-16T14:31:10;0.80;;;0.80;;
21192;SDS011;10754;51.106;7.164;2023-03-16T14:33:38;1.05;;;0.80;;
21192;SDS011;10754;51.106;7.164;2023-03-16T14:36:16;1.67;;;0.90;;
21192;SDS011;10754;51.106;7.164;2023-03-16T14:38:44;1.55;;;0.85;;
21192;SDS011;10754;51.106;7.164;2023-03-16T14:41:28;1.40;;;1.02;;
21192;SDS011;10754;51.106;7.164;2023-03-16T14:43:58;2.85;;;0.80;;
21192;SDS011;10754;51.106;7.164;2023-03-16T14:46:26;3.17;;;1.17;;
21192;SDS011;10754;51.106;7.164;2023-03-16T14:49:00;1.13;;;0.70;;
21192;SDS011;10754;51.106;7.164;2023-03-16T14:51:27;1.15;;;1.00;;
21192;SDS011;10754;51.106;7.164;2023-03-16T14:53:55;1.35;;;0.68;;
21192;SDS011;10754;51.106;7.164;2023-03-16T14:56:21;1.13;;;0.60;;
21192;SDS011;10754;51.106;7.164;2023-03-16T14:58:47;0.95;;;0.65;;
21192;SDS011;10754;51.106;7.164;2023-03-16T15:01:13;0.85;;;0.70;;
21192;SDS011;10754;51.106;7.164;2023-03-16T15:03:41;1.08;;;0.80;;
21192;SDS011;10754;51.106;7.164;2023-03-16T15:06:08;1.60;;;0.80;;
21192;SDS011;10754;51.106;7.164;2023-03-16T15:08:34;1.88;;;0.88;;
21192;SDS011;10754;51.106;7.164;2023-03-16T15:11:07;0.68;;;0.68;;
21192;SDS011;10754;51.106;7.164;2023-03-16T15:13:33;2.30;;;0.80;;
21192;SDS011;10754;51.106;7.164;2023-03-16T15:16:16;0.85;;;0.60;;
21192;SDS011;10754;51.106;7.164;2023-03-16T15:18:43;2.55;;;0.80;;
21192;SDS011;10754;51.106;7.164;2023-03-16T15:21:13;1.50;;;0.90;;
21192;SDS011;10754;51.106;7.164;2023-03-16T15:23:42;1.77;;;1.02;;
21192;SDS011;10754;51.106;7.164;2023-03-16T15:26:10;0.80;;;0.55;;
21192;SDS011;10754;51.106;7.164;2023-03-16T15:28:39;2.55;;;0.85;;
21192;SDS011;10754;51.106;7.164;2023-03-16T15:31:05;2.20;;;0.80;;
21192;SDS011;10754;51.106;7.164;2023-03-16T15:33:31;1.77;;;0.65;;
21192;SDS011;10754;51.106;7.164;2023-03-16T15:35:57;1.52;;;0.90;;
21192;SDS011;10754;51.106;7.164;2023-03-16T15:38:25;2.13;;;1.20;;
21192;SDS011;10754;51.106;7.164;2023-03-16T15:41:07;1.25;;;0.73;;
21192;SDS011;10754;51.106;7.164;2023-03-16T15:43:34;1.70;;;0.80;;
21192;SDS011;10754;51.106;7.164;2023-03-16T15:46:00;1.73;;;1.00;;
21192;SDS011;10754;51.106;7.164;2023-03-16T15:48:25;2.97;;;0.85;;
21192;SDS011;10754;51.106;7.164;2023-03-16T15:51:25;1.15;;;0.80;;
21192;SDS011;10754;51.106;7.164;2023-03-16T15:53:53;1.20;;;1.10;;
21192;SDS011;10754;51.106;7.164;2023-03-16T15:56:25;1.40;;;0.95;;
21192;SDS011;10754;51.106;7.164;2023-03-16T15:58:54;1.45;;;0.88;;
21192;SDS011;10754;51.106;7.164;2023-03-16T16:01:24;2.17;;;1.00;;
21192;SDS011;10754;51.106;7.164;2023-03-16T16:03:54;2.15;;;1.23;;
21192;SDS011;10754;51.106;7.164;2023-03-16T16:06:20;1.60;;;0.80;;
21192;SDS011;10754;51.106;7.164;2023-03-16T16:08:46;1.58;;;0.88;;
21192;SDS011;10754;51.106;7.164;2023-03-16T16:11:15;4.03;;;1.30;;
21192;SDS011;10754;51.106;7.164;2023-03-16T16:13:44;2.08;;;1.10;;
21192;SDS011;10754;51.106;7.164;2023-03-16T16:16:11;1.92;;;1.10;;
21192;SDS011;10754;51.106;7.164;2023-03-16T16:18:38;1.47;;;1.03;;
21192;SDS011;10754;51.106;7.164;2023-03-16T16:21:05;1.33;;;1.00;;